Time,TemperatureF,DewpointF,PressureIn,WindDirection,WindDirectionDegrees,WindSpeedMPH,WindSpeedGustMPH,Humidity,HourlyPrecipIn,Conditions,Clouds,dailyrainin,SoftwareType,DateUTC
2013-01-26 00:02:00,53.0,42.0,30.09,West,269,3.0,4.0,66,0.00,,,-99.99,VWS V9.05,2013-01-26 08:02:00,
2013-01-26 00:10:00,52.8,44.4,30.09,West,275,3.0,5.0,73,0.00,,,-99.99,VWS V9.05,2013-01-26 08:10:00,
2013-01-26 00:16:00,52.7,45.0,30.09,WNW,295,1.0,6.0,75,0.00,,,-99.99,VWS V9.05,2013-01-26 08:16:00,
2013-01-26 00:24:00,52.6,46.3,30.09,WNW,289,1.0,6.0,79,0.00,,,-99.99,VWS V9.05,2013-01-26 08:24:00,
2013-01-26 00:32:00,52.5,45.8,30.09,West,277,6.0,7.0,78,0.00,,,-99.99,VWS V9.05,2013-01-26 08:32:00,
2013-01-26 00:40:00,52.4,45.1,30.08,West,272,5.0,7.0,76,0.00,,,-99.99,VWS V9.05,2013-01-26 08:40:00,
2013-01-26 00:46:00,52.3,45.0,30.08,West,281,5.0,7.0,76,0.00,,,-99.99,VWS V9.05,2013-01-26 08:46:00,
2013-01-26 00:54:00,52.2,45.9,30.08,WNW,287,4.0,7.0,79,0.00,,,-99.99,VWS V9.05,2013-01-26 08:54:00,
2013-01-26 01:02:00,52.0,45.0,30.08,WNW,283,4.0,6.0,77,0.00,,,-99.99,VWS V9.05,2013-01-26 09:02:00,
2013-01-26 01:10:00,52.0,45.0,30.08,WNW,300,3.0,7.0,77,0.00,,,-99.99,VWS V9.05,2013-01-26 09:10:00,
2013-01-26 01:16:00,52.0,45.4,30.08,WNW,300,3.0,7.0,78,0.00,,,-99.99,VWS V9.05,2013-01-26 09:16:00,
2013-01-26 01:24:00,51.9,46.3,30.07,NW,307,4.0,7.0,81,0.00,,,-99.99,VWS V9.05,2013-01-26 09:24:00,
2013-01-26 01:32:00,51.8,45.8,30.08,WNW,301,5.0,7.0,80,0.00,,,-99.99,VWS V9.05,2013-01-26 09:32:00,
2013-01-26 01:40:00,51.8,44.8,30.08,WNW,303,5.0,6.0,77,0.00,,,-99.99,VWS V9.05,2013-01-26 09:40:00,
2013-01-26 01:46:00,51.7,44.0,30.08,NW,324,5.0,9.0,75,0.00,,,-99.99,VWS V9.05,2013-01-26 09:46:00,
2013-01-26 01:54:00,51.6,42.5,30.08,NNW,344,4.0,9.0,71,0.00,,,-99.99,VWS V9.05,2013-01-26 09:54:00,
2013-01-26 02:02:00,51.6,43.6,30.08,NNW,346,2.0,4.0,74,0.00,,,-99.99,VWS V9.05,2013-01-26 10:02:00,
2013-01-26 02:10:00,51.5,43.5,30.08,NNW,342,4.0,6.0,74,0.00,,,-99.99,VWS V9.05,2013-01-26 10:10:00,
2013-01-26 02:16:00,51.3,43.7,30.08,NNW,342,5.0,6.0,75,0.00,,,-99.99,VWS V9.05,2013-01-26 10:16:00,
2013-01-26 02:24:00,51.2,43.9,30.08,NW,324,7.0,8.0,76,0.00,,,-99.99,VWS V9.05,2013-01-26 10:24:00,
2013-01-26 02:32:00,51.0,43.0,30.08,NW,325,6.0,9.0,74,0.00,,,-99.99,VWS V9.05,2013-01-26 10:32:00,
2013-01-26 02:40:00,50.9,40.7,30.08,West,281,9.0,11.0,68,0.00,,,-99.99,VWS V9.05,2013-01-26 10:40:00,
2013-01-26 02:46:00,50.9,40.3,30.07,WNW,293,12.0,16.0,67,0.00,,,-99.99,VWS V9.05,2013-01-26 10:46:00,
2013-01-26 02:54:00,51.0,40.1,30.07,WNW,297,12.0,18.0,66,0.00,,,-99.99,VWS V9.05,2013-01-26 10:54:00,
2013-01-26 03:02:00,51.0,40.8,30.07,NW,318,12.0,17.0,68,0.00,,,-99.99,VWS V9.05,2013-01-26 11:02:00,
2013-01-26 03:10:00,51.3,41.5,30.07,WNW,302,11.0,17.0,69,0.00,,,-99.99,VWS V9.05,2013-01-26 11:10:00,
2013-01-26 03:16:00,51.5,41.7,30.06,NW,305,7.0,17.0,69,0.00,,,-99.99,VWS V9.05,2013-01-26 11:16:00,
2013-01-26 03:24:00,51.7,41.9,30.07,NW,313,9.0,13.0,69,0.00,,,-99.99,VWS V9.05,2013-01-26 11:24:00,
2013-01-26 03:32:00,52.0,41.8,30.07,WNW,291,11.0,13.0,68,0.00,,,-99.99,VWS V9.05,2013-01-26 11:32:00,
2013-01-26 03:40:00,52.1,41.9,30.06,NW,307,6.0,8.0,68,0.00,,,-99.99,VWS V9.05,2013-01-26 11:40:00,
2013-01-26 03:46:00,52.1,41.9,30.07,NW,317,7.0,10.0,68,0.00,,,-99.99,VWS V9.05,2013-01-26 11:46:00,
2013-01-26 03:54:00,52.2,42.0,30.06,NNW,331,4.0,11.0,68,0.00,,,-99.99,VWS V9.05,2013-01-26 11:54:00,
2013-01-26 04:02:00,52.3,42.1,30.06,WNW,298,8.0,12.0,68,0.00,,,-99.99,VWS V9.05,2013-01-26 12:02:00,
2013-01-26 04:10:00,52.3,42.1,30.06,NW,306,8.0,15.0,68,0.00,,,-99.99,VWS V9.05,2013-01-26 12:10:00,
2013-01-26 04:16:00,52.3,42.1,30.06,WNW,288,7.0,15.0,68,0.00,,,-99.99,VWS V9.05,2013-01-26 12:16:00,
2013-01-26 04:24:00,52.4,42.2,30.06,WNW,299,6.0,8.0,68,0.00,,,-99.99,VWS V9.05,2013-01-26 12:24:00,
2013-01-26 04:32:00,52.2,42.0,30.06,NNW,338,2.0,8.0,68,0.00,,,-99.99,VWS V9.05,2013-01-26 12:32:00,
2013-01-26 04:40:00,52.3,42.1,30.06,NW,304,9.0,11.0,68,0.00,,,-99.99,VWS V9.05,2013-01-26 12:40:00,
2013-01-26 04:46:00,52.4,42.2,30.06,WNW,300,5.0,12.0,68,0.00,,,-99.99,VWS V9.05,2013-01-26 12:46:00,
2013-01-26 04:54:00,52.4,42.2,30.06,NW,310,4.0,12.0,68,0.00,,,-99.99,VWS V9.05,2013-01-26 12:54:00,
2013-01-26 05:02:00,52.4,42.2,30.06,NNW,336,3.0,5.0,68,0.00,,,-99.99,VWS V9.05,2013-01-26 13:02:00,
2013-01-26 05:10:00,52.3,42.1,30.06,NNW,335,3.0,5.0,68,0.00,,,-99.99,VWS V9.05,2013-01-26 13:10:00,
2013-01-26 05:16:00,52.3,42.1,30.06,NW,307,2.0,6.0,68,0.00,,,-99.99,VWS V9.05,2013-01-26 13:16:00,
2013-01-26 05:24:00,52.2,42.0,30.05,NW,322,4.0,7.0,68,0.00,,,-99.99,VWS V9.05,2013-01-26 13:24:00,
2013-01-26 05:32:00,52.2,42.0,30.06,NW,312,0.0,7.0,68,0.00,,,-99.99,VWS V9.05,2013-01-26 13:32:00,
2013-01-26 05:40:00,52.0,41.8,30.06,NW,312,1.0,2.0,68,0.00,,,-99.99,VWS V9.05,2013-01-26 13:40:00,
2013-01-26 05:46:00,51.8,41.6,30.06,NNW,334,5.0,5.0,68,0.00,,,-99.99,VWS V9.05,2013-01-26 13:46:00,
2013-01-26 05:54:00,51.3,41.5,30.06,NNW,343,3.0,7.0,69,0.00,,,-99.99,VWS V9.05,2013-01-26 13:54:00,
2013-01-26 06:02:00,50.8,41.0,30.06,NNW,334,2.0,6.0,69,0.00,,,-99.99,VWS V9.05,2013-01-26 14:02:00,
2013-01-26 06:10:00,50.8,41.4,30.06,WNW,288,5.0,9.0,70,0.00,,,-99.99,VWS V9.05,2013-01-26 14:10:00,
2013-01-26 06:16:00,50.7,40.9,30.06,WNW,294,3.0,11.0,69,0.00,,,-99.99,VWS V9.05,2013-01-26 14:16:00,
2013-01-26 06:24:00,50.6,40.4,30.06,NW,314,5.0,9.0,68,0.00,,,-99.99,VWS V9.05,2013-01-26 14:24:00,
2013-01-26 06:32:00,50.5,38.0,30.06,NW,304,5.0,10.0,62,0.00,,,-99.99,VWS V9.05,2013-01-26 14:32:00,
2013-01-26 06:40:00,50.5,38.0,30.06,WNW,299,7.0,10.0,62,0.00,,,-99.99,VWS V9.05,2013-01-26 14:40:00,
2013-01-26 06:46:00,50.5,37.6,30.06,NNW,343,6.0,10.0,61,0.00,,,-99.99,VWS V9.05,2013-01-26 14:46:00,
2013-01-26 06:54:00,50.6,37.7,30.06,NW,319,7.0,10.0,61,0.00,,,-99.99,VWS V9.05,2013-01-26 14:54:00,
2013-01-26 07:02:00,50.7,37.8,30.06,WNW,298,1.0,5.0,61,0.00,,,-99.99,VWS V9.05,2013-01-26 15:02:00,
2013-01-26 07:10:00,50.5,37.6,30.06,WNW,298,1.0,5.0,61,0.00,,,-99.99,VWS V9.05,2013-01-26 15:10:00,
2013-01-26 07:16:00,50.2,37.3,30.06,WNW,298,0.0,5.0,61,0.00,,,-99.99,VWS V9.05,2013-01-26 15:16:00,
2013-01-26 07:24:00,49.9,36.6,30.06,WNW,298,2.0,4.0,60,0.00,,,-99.99,VWS V9.05,2013-01-26 15:24:00,
2013-01-26 07:32:00,49.6,35.5,30.06,WNW,298,1.0,4.0,58,0.00,,,-99.99,VWS V9.05,2013-01-26 15:32:00,
2013-01-26 07:40:00,49.7,35.5,30.06,WNW,299,1.0,2.0,58,0.00,,,-99.99,VWS V9.05,2013-01-26 15:40:00,
2013-01-26 07:46:00,49.9,36.2,30.06,NW,319,0.0,5.0,59,0.00,,,-99.99,VWS V9.05,2013-01-26 15:46:00,
2013-01-26 07:54:00,50.8,37.4,30.06,NW,319,0.0,5.0,60,0.00,,,-99.99,VWS V9.05,2013-01-26 15:54:00,
2013-01-26 08:02:00,52.7,39.6,30.06,NW,319,0.0,3.0,61,0.00,,,-99.99,VWS V9.05,2013-01-26 16:02:00,
2013-01-26 08:10:00,53.6,40.5,30.07,NW,318,2.0,5.0,61,0.00,,,-99.99,VWS V9.05,2013-01-26 16:10:00,
2013-01-26 08:16:00,54.1,41.0,30.07,WNW,302,9.0,11.0,61,0.00,,,-99.99,VWS V9.05,2013-01-26 16:16:00,
2013-01-26 08:24:00,54.2,41.1,30.07,WNW,293,4.0,13.0,61,0.00,,,-99.99,VWS V9.05,2013-01-26 16:24:00,
2013-01-26 08:32:00,54.4,41.2,30.07,WNW,297,13.0,14.0,61,0.00,,,-99.99,VWS V9.05,2013-01-26 16:32:00,
2013-01-26 08:40:00,54.1,40.5,30.07,WNW,300,10.0,10.0,60,0.00,,,-99.99,VWS V9.05,2013-01-26 16:40:00,
2013-01-26 08:46:00,53.9,40.3,30.07,WNW,290,7.0,15.0,60,0.00,,,-99.99,VWS V9.05,2013-01-26 16:46:00,
2013-01-26 08:54:00,54.3,41.2,30.07,WNW,298,9.0,15.0,61,0.00,,,-99.99,VWS V9.05,2013-01-26 16:54:00,
2013-01-26 09:02:00,53.7,40.2,30.07,WNW,286,9.0,12.0,60,0.00,,,-99.99,VWS V9.05,2013-01-26 17:02:00,
2013-01-26 09:10:00,53.7,40.6,30.07,West,276,11.0,14.0,61,0.00,,,-99.99,VWS V9.05,2013-01-26 17:10:00,
2013-01-26 09:16:00,53.5,40.4,30.07,West,273,8.0,15.0,61,0.00,,,-99.99,VWS V9.05,2013-01-26 17:16:00,
2013-01-26 09:24:00,53.0,39.5,30.07,WNW,285,10.0,18.0,60,0.00,,,-99.99,VWS V9.05,2013-01-26 17:24:00,
2013-01-26 09:32:00,52.2,38.3,30.08,West,276,13.0,21.0,59,0.00,,,-99.99,VWS V9.05,2013-01-26 17:32:00,
2013-01-26 09:40:00,52.1,37.8,30.08,West,277,11.0,13.0,58,0.00,,,-99.99,VWS V9.05,2013-01-26 17:40:00,
2013-01-26 09:46:00,52.1,36.9,30.09,WNW,284,5.0,14.0,56,0.00,,,-99.99,VWS V9.05,2013-01-26 17:46:00,
2013-01-26 09:54:00,52.3,36.6,30.09,WNW,287,10.0,14.0,55,0.00,,,-99.99,VWS V9.05,2013-01-26 17:54:00,
2013-01-26 10:02:00,52.5,35.9,30.09,NW,309,4.0,12.0,53,0.00,,,-99.99,VWS V9.05,2013-01-26 18:02:00,
2013-01-26 10:10:00,53.1,37.8,30.09,West,274,11.0,14.0,56,0.00,,,-99.99,VWS V9.05,2013-01-26 18:10:00,
2013-01-26 10:16:00,54.2,38.9,30.09,West,274,13.0,14.0,56,0.00,,,-99.99,VWS V9.05,2013-01-26 18:16:00,
2013-01-26 10:24:00,55.0,38.7,30.09,WNW,282,13.0,15.0,54,0.00,,,-99.99,VWS V9.05,2013-01-26 18:24:00,
2013-01-26 10:32:00,55.6,38.8,30.09,WNW,285,6.0,15.0,53,0.00,,,-99.99,VWS V9.05,2013-01-26 18:32:00,
2013-01-26 10:40:00,55.8,38.5,30.09,WNW,297,10.0,14.0,52,0.00,,,-99.99,VWS V9.05,2013-01-26 18:40:00,
2013-01-26 10:46:00,55.4,36.6,30.09,NNW,340,9.0,15.0,49,0.00,,,-99.99,VWS V9.05,2013-01-26 18:46:00,
2013-01-26 10:54:00,54.2,35.0,30.09,NW,310,11.0,15.0,48,0.00,,,-99.99,VWS V9.05,2013-01-26 18:54:00,
2013-01-26 11:02:00,53.4,34.2,30.09,NW,321,5.0,16.0,48,0.00,,,-99.99,VWS V9.05,2013-01-26 19:02:00,
2013-01-26 11:10:00,53.1,34.0,30.09,WNW,303,11.0,17.0,48,0.00,,,-99.99,VWS V9.05,2013-01-26 19:10:00,
2013-01-26 11:16:00,52.8,33.7,30.09,NW,322,13.0,19.0,48,0.00,,,-99.99,VWS V9.05,2013-01-26 19:16:00,
2013-01-26 11:24:00,52.7,33.6,30.08,NW,313,11.0,17.0,48,0.00,,,-99.99,VWS V9.05,2013-01-26 19:24:00,
2013-01-26 11:32:00,52.8,33.7,30.08,NW,319,15.0,19.0,48,0.00,,,-99.99,VWS V9.05,2013-01-26 19:32:00,
2013-01-26 11:40:00,52.9,33.8,30.08,NNW,327,5.0,14.0,48,0.00,,,-99.99,VWS V9.05,2013-01-26 19:40:00,
2013-01-26 11:46:00,52.5,33.9,30.08,NW,324,10.0,20.0,49,0.00,,,-99.99,VWS V9.05,2013-01-26 19:46:00,
2013-01-26 11:54:00,52.4,33.8,30.07,NW,321,10.0,20.0,49,0.00,,,-99.99,VWS V9.05,2013-01-26 19:54:00,
2013-01-26 12:02:00,52.1,33.5,30.07,NW,321,13.0,16.0,49,0.00,,,-99.99,VWS V9.05,2013-01-26 20:02:00,
2013-01-26 12:10:00,52.3,33.2,30.07,NW,315,7.0,16.0,48,0.00,,,-99.99,VWS V9.05,2013-01-26 20:10:00,
2013-01-26 12:16:00,52.6,33.5,30.07,North,351,0.0,16.0,48,0.00,,,-99.99,VWS V9.05,2013-01-26 20:16:00,
2013-01-26 12:24:00,52.7,34.1,30.07,NW,317,6.0,11.0,49,0.00,,,-99.99,VWS V9.05,2013-01-26 20:24:00,
2013-01-26 12:32:00,54.3,37.5,30.06,NW,305,5.0,22.0,53,0.00,,,-99.99,VWS V9.05,2013-01-26 20:32:00,
2013-01-26 12:40:00,55.9,39.0,30.06,WNW,292,10.0,13.0,53,0.00,,,-99.99,VWS V9.05,2013-01-26 20:40:00,
2013-01-26 12:46:00,56.1,38.7,30.06,WNW,295,9.0,18.0,52,0.00,,,-99.99,VWS V9.05,2013-01-26 20:46:00,
2013-01-26 12:54:00,56.6,39.7,30.06,NW,306,5.0,20.0,53,0.00,,,-99.99,VWS V9.05,2013-01-26 20:54:00,
2013-01-26 13:02:00,55.5,36.2,30.06,WNW,301,10.0,19.0,48,0.00,,,-99.99,VWS V9.05,2013-01-26 21:02:00,
2013-01-26 13:10:00,54.9,36.1,30.06,West,260,11.0,19.0,49,0.00,,,-99.99,VWS V9.05,2013-01-26 21:10:00,
2013-01-26 13:16:00,54.8,36.0,30.06,West,272,15.0,22.0,49,0.00,,,-99.99,VWS V9.05,2013-01-26 21:16:00,
2013-01-26 13:24:00,54.9,36.1,30.05,WNW,293,18.0,22.0,49,0.00,,,-99.99,VWS V9.05,2013-01-26 21:24:00,
2013-01-26 13:32:00,55.0,36.2,30.05,WNW,292,17.0,23.0,49,0.00,,,-99.99,VWS V9.05,2013-01-26 21:32:00,
2013-01-26 13:40:00,54.6,36.3,30.05,WNW,295,17.0,19.0,50,0.00,,,-99.99,VWS V9.05,2013-01-26 21:40:00,
2013-01-26 13:46:00,54.1,35.9,30.05,NW,309,10.0,20.0,50,0.00,,,-99.99,VWS V9.05,2013-01-26 21:46:00,
2013-01-26 13:54:00,53.9,35.7,30.06,WNW,286,14.0,21.0,50,0.00,,,-99.99,VWS V9.05,2013-01-26 21:54:00,
2013-01-26 14:02:00,53.9,35.7,30.05,WNW,299,12.0,25.0,50,0.00,,,-99.99,VWS V9.05,2013-01-26 22:02:00,
2013-01-26 14:10:00,53.8,35.1,30.06,WNW,296,19.0,26.0,49,0.00,,,-99.99,VWS V9.05,2013-01-26 22:10:00,
2013-01-26 14:16:00,54.0,35.3,30.06,WNW,301,10.0,26.0,49,0.00,,,-99.99,VWS V9.05,2013-01-26 22:16:00,
2013-01-26 14:24:00,54.2,35.5,30.06,WNW,291,13.0,22.0,49,0.00,,,-99.99,VWS V9.05,2013-01-26 22:24:00,
2013-01-26 14:32:00,54.1,35.4,30.06,WNW,289,18.0,24.0,49,0.00,,,-99.99,VWS V9.05,2013-01-26 22:32:00,
2013-01-26 14:40:00,53.4,34.7,30.06,WNW,283,6.0,20.0,49,0.00,,,-99.99,VWS V9.05,2013-01-26 22:40:00,
2013-01-26 14:46:00,53.0,34.4,30.06,West,264,9.0,21.0,49,0.00,,,-99.99,VWS V9.05,2013-01-26 22:46:00,
2013-01-26 14:54:00,52.6,34.0,30.06,West,270,12.0,23.0,49,0.00,,,-99.99,VWS V9.05,2013-01-26 22:54:00,
2013-01-26 15:02:00,52.4,33.8,30.06,WNW,291,9.0,23.0,49,0.00,,,-99.99,VWS V9.05,2013-01-26 23:02:00,
2013-01-26 15:10:00,52.2,34.1,30.06,WNW,282,18.0,23.0,50,0.00,,,-99.99,VWS V9.05,2013-01-26 23:10:00,
2013-01-26 15:16:00,51.9,33.4,30.06,WNW,288,21.0,23.0,49,0.00,,,-99.99,VWS V9.05,2013-01-26 23:16:00,
2013-01-26 15:24:00,51.7,33.7,30.06,NNW,327,6.0,19.0,50,0.00,,,-99.99,VWS V9.05,2013-01-26 23:24:00,
2013-01-26 15:32:00,51.7,33.7,30.06,NNW,328,13.0,22.0,50,0.00,,,-99.99,VWS V9.05,2013-01-26 23:32:00,
2013-01-26 15:40:00,51.5,33.5,30.06,WNW,289,13.0,22.0,50,0.00,,,-99.99,VWS V9.05,2013-01-26 23:40:00,
2013-01-26 15:46:00,51.2,33.2,30.06,WNW,295,13.0,23.0,50,0.00,,,-99.99,VWS V9.05,2013-01-26 23:46:00,
2013-01-26 15:54:00,50.9,32.9,30.06,WNW,299,14.0,24.0,50,0.00,,,-99.99,VWS V9.05,2013-01-26 23:54:00,
2013-01-26 16:02:00,50.5,32.6,30.06,West,281,12.0,21.0,50,0.00,,,-99.99,VWS V9.05,2013-01-27 00:02:00,
2013-01-26 16:10:00,50.3,32.9,30.06,WNW,282,11.0,21.0,51,0.00,,,-99.99,VWS V9.05,2013-01-27 00:10:00,
2013-01-26 16:16:00,50.1,32.7,30.06,WNW,291,10.0,21.0,51,0.00,,,-99.99,VWS V9.05,2013-01-27 00:16:00,
2013-01-26 16:24:00,49.9,32.5,30.06,WNW,290,9.0,20.0,51,0.00,,,-99.99,VWS V9.05,2013-01-27 00:24:00,
2013-01-26 16:33:00,49.5,32.1,30.05,WNW,287,17.0,21.0,51,0.00,,,-99.99,VWS V9.05,2013-01-27 00:33:00,
2013-01-26 16:40:00,49.4,32.5,30.05,West,269,10.0,17.0,52,0.00,,,-99.99,VWS V9.05,2013-01-27 00:40:00,
2013-01-26 16:46:00,49.2,32.3,30.05,West,277,9.0,20.0,52,0.00,,,-99.99,VWS V9.05,2013-01-27 00:46:00,
2013-01-26 16:54:00,49.2,33.3,30.05,West,273,15.0,20.0,54,0.00,,,-99.99,VWS V9.05,2013-01-27 00:54:00,
2013-01-26 17:02:00,49.1,33.7,30.06,West,267,15.0,20.0,55,0.00,,,-99.99,VWS V9.05,2013-01-27 01:02:00,
2013-01-26 17:10:00,48.8,33.8,30.06,WNW,298,14.0,20.0,56,0.00,,,-99.99,VWS V9.05,2013-01-27 01:10:00,
2013-01-26 17:16:00,48.5,33.1,30.06,NW,312,10.0,20.0,55,0.00,,,-99.99,VWS V9.05,2013-01-27 01:16:00,
2013-01-26 17:24:00,48.1,36.9,30.07,WNW,291,7.0,15.0,65,0.00,,,-99.99,VWS V9.05,2013-01-27 01:24:00,
2013-01-26 17:32:00,47.7,31.9,30.07,NW,323,10.0,15.0,54,0.00,,,-99.99,VWS V9.05,2013-01-27 01:32:00,
2013-01-26 17:40:00,47.8,32.0,30.07,NW,310,9.0,12.0,54,0.00,,,-99.99,VWS V9.05,2013-01-27 01:40:00,
2013-01-26 17:46:00,47.7,31.9,30.07,NW,317,6.0,12.0,54,0.00,,,-99.99,VWS V9.05,2013-01-27 01:46:00,
2013-01-26 17:54:00,47.6,31.8,30.08,WNW,299,14.0,20.0,54,0.00,,,-99.99,VWS V9.05,2013-01-27 01:54:00,
2013-01-26 18:02:00,47.5,32.2,30.08,WNW,294,11.0,15.0,55,0.00,,,-99.99,VWS V9.05,2013-01-27 02:02:00,
2013-01-26 18:10:00,47.4,34.6,30.08,WNW,295,3.0,23.0,61,0.00,,,-99.99,VWS V9.05,2013-01-27 02:10:00,
2013-01-26 18:16:00,47.5,34.7,30.08,WNW,290,13.0,23.0,61,0.00,,,-99.99,VWS V9.05,2013-01-27 02:16:00,
2013-01-26 18:24:00,47.4,34.6,30.08,WNW,293,9.0,20.0,61,0.00,,,-99.99,VWS V9.05,2013-01-27 02:24:00,
2013-01-26 18:32:00,47.3,35.0,30.08,WNW,283,15.0,20.0,62,0.00,,,-99.99,VWS V9.05,2013-01-27 02:32:00,
2013-01-26 18:40:00,47.2,34.9,30.08,WNW,297,10.0,16.0,62,0.00,,,-99.99,VWS V9.05,2013-01-27 02:40:00,
2013-01-26 18:46:00,47.2,35.7,30.08,West,275,10.0,18.0,64,0.00,,,-99.99,VWS V9.05,2013-01-27 02:46:00,
2013-01-26 18:54:00,47.1,36.0,30.08,West,280,18.0,23.0,65,0.00,,,-99.99,VWS V9.05,2013-01-27 02:54:00,
2013-01-26 19:02:00,47.1,36.0,30.08,WNW,290,10.0,20.0,65,0.00,,,-99.99,VWS V9.05,2013-01-27 03:02:00,
2013-01-26 19:10:00,47.0,36.2,30.08,WNW,301,12.0,22.0,66,0.00,,,-99.99,VWS V9.05,2013-01-27 03:10:00,
2013-01-26 19:16:00,47.0,36.6,30.08,West,265,14.0,22.0,67,0.00,,,-99.99,VWS V9.05,2013-01-27 03:16:00,
2013-01-26 19:24:00,47.0,37.0,30.08,West,279,16.0,22.0,68,0.00,,,-99.99,VWS V9.05,2013-01-27 03:24:00,
2013-01-26 19:33:00,47.1,37.1,30.08,WNW,287,18.0,22.0,68,0.00,,,-99.99,VWS V9.05,2013-01-27 03:33:00,
2013-01-26 19:41:00,47.1,37.1,30.09,WNW,292,14.0,18.0,68,0.00,,,-99.99,VWS V9.05,2013-01-27 03:41:00,
2013-01-26 19:46:00,47.1,37.1,30.09,WNW,300,11.0,24.0,68,0.00,,,-99.99,VWS V9.05,2013-01-27 03:46:00,
2013-01-26 19:54:00,47.1,37.1,30.09,WNW,292,12.0,26.0,68,0.00,,,-99.99,VWS V9.05,2013-01-27 03:54:00,
2013-01-26 20:02:00,47.0,37.4,30.09,WNW,303,16.0,23.0,69,0.00,,,-99.99,VWS V9.05,2013-01-27 04:02:00,
2013-01-26 20:10:00,46.9,36.9,30.09,WNW,294,14.0,23.0,68,0.00,,,-99.99,VWS V9.05,2013-01-27 04:10:00,
2013-01-26 20:16:00,46.8,36.8,30.09,WNW,283,3.0,23.0,68,0.00,,,-99.99,VWS V9.05,2013-01-27 04:16:00,
2013-01-26 20:24:00,46.7,39.9,30.09,WNW,290,8.0,20.0,77,0.00,,,-99.99,VWS V9.05,2013-01-27 04:24:00,
2013-01-26 20:32:00,46.6,40.5,30.09,WNW,294,15.0,22.0,79,0.00,,,-99.99,VWS V9.05,2013-01-27 04:32:00,
2013-01-26 20:40:00,46.7,40.2,30.09,WNW,288,19.0,25.0,78,0.00,,,-99.99,VWS V9.05,2013-01-27 04:40:00,
2013-01-26 20:46:00,46.7,40.5,30.09,WNW,294,12.0,25.0,79,0.00,,,-99.99,VWS V9.05,2013-01-27 04:46:00,
2013-01-26 20:54:00,46.8,40.6,30.09,West,270,21.0,25.0,79,0.00,,,-99.99,VWS V9.05,2013-01-27 04:54:00,
2013-01-26 21:02:00,46.8,40.3,30.09,WNW,285,15.0,25.0,78,0.00,,,-99.99,VWS V9.05,2013-01-27 05:02:00,
2013-01-26 21:10:00,46.6,40.1,30.09,NW,304,16.0,25.0,78,0.00,,,-99.99,VWS V9.05,2013-01-27 05:10:00,
2013-01-26 21:16:00,46.7,40.2,30.10,WNW,287,19.0,26.0,78,0.00,,,-99.99,VWS V9.05,2013-01-27 05:16:00,
2013-01-26 21:24:00,46.6,40.1,30.10,WNW,291,17.0,23.0,78,0.00,,,-99.99,VWS V9.05,2013-01-27 05:24:00,
2013-01-26 21:32:00,46.4,39.9,30.10,West,281,16.0,25.0,78,0.00,,,-99.99,VWS V9.05,2013-01-27 05:32:00,
2013-01-26 21:34:00,46.4,39.9,30.10,WNW,303,5.0,25.0,78,0.00,,,-99.99,VWS V9.05,2013-01-27 05:34:00,
2013-01-26 21:40:00,46.2,39.7,30.11,NW,308,8.0,14.0,78,0.00,,,-99.99,VWS V9.05,2013-01-27 05:40:00,
2013-01-26 21:46:00,46.2,39.1,30.10,WNW,294,8.0,17.0,76,0.00,,,-99.99,VWS V9.05,2013-01-27 05:46:00,
2013-01-26 21:54:00,46.1,39.3,30.11,WNW,301,7.0,17.0,77,0.00,,,-99.99,VWS V9.05,2013-01-27 05:54:00,
2013-01-26 22:02:00,46.3,39.2,30.11,NW,308,9.0,17.0,76,0.00,,,-99.99,VWS V9.05,2013-01-27 06:02:00,
2013-01-26 22:10:00,46.4,38.9,30.11,NW,306,14.0,18.0,75,0.00,,,-99.99,VWS V9.05,2013-01-27 06:10:00,
2013-01-26 22:16:00,46.4,38.6,30.11,West,281,13.0,18.0,74,0.00,,,-99.99,VWS V9.05,2013-01-27 06:16:00,
2013-01-26 22:24:00,46.2,38.4,30.11,WNW,296,10.0,14.0,74,0.00,,,-99.99,VWS V9.05,2013-01-27 06:24:00,
2013-01-26 22:32:00,46.0,36.8,30.11,NW,309,10.0,14.0,70,0.00,,,-99.99,VWS V9.05,2013-01-27 06:32:00,
2013-01-26 22:40:00,45.8,33.5,30.11,WNW,285,11.0,15.0,62,0.00,,,-99.99,VWS V9.05,2013-01-27 06:40:00,
2013-01-26 22:46:00,45.9,32.4,30.12,WNW,302,9.0,16.0,59,0.00,,,-99.99,VWS V9.05,2013-01-27 06:46:00,
2013-01-26 22:54:00,46.2,32.7,30.12,NW,304,8.0,16.0,59,0.00,,,-99.99,VWS V9.05,2013-01-27 06:54:00,
2013-01-26 23:02:00,46.0,32.5,30.12,NW,308,7.0,11.0,59,0.00,,,-99.99,VWS V9.05,2013-01-27 07:02:00,
2013-01-26 23:16:00,45.8,32.3,30.12,WNW,303,8.0,14.0,59,0.00,,,-99.99,VWS V9.05,2013-01-27 07:16:00,
2013-01-26 23:24:00,45.8,32.3,30.12,West,281,11.0,13.0,59,0.00,,,-99.99,VWS V9.05,2013-01-27 07:24:00,
2013-01-26 23:32:00,45.6,35.7,30.12,WNW,293,6.0,14.0,68,0.00,,,-99.99,VWS V9.05,2013-01-27 07:32:00,
2013-01-26 23:40:00,45.6,36.4,30.12,WNW,297,11.0,14.0,70,0.00,,,-99.99,VWS V9.05,2013-01-27 07:40:00,
2013-01-26 23:46:00,45.5,36.7,30.12,WNW,297,11.0,14.0,71,0.00,,,-99.99,VWS V9.05,2013-01-27 07:46:00,
2013-01-26 23:54:00,45.6,36.4,30.12,WNW,287,12.0,18.0,70,0.00,,,-99.99,VWS V9.05,2013-01-27 07:54:00,